createdAt,value
2018-12-01T00:01:43.113Z,95474.37
2018-12-01T00:04:13.025Z,95481.31
2018-12-01T00:06:42.908Z,95476.11
2018-12-01T00:09:12.754Z,95480.42
2018-12-01T00:11:42.838Z,95482.11
2018-12-01T00:14:12.863Z,95486.41
2018-12-01T00:16:42.822Z,95485.15
2018-12-01T00:19:13.737Z,95485.12
2018-12-01T00:21:43.820Z,95486.83
2018-12-01T00:24:13.770Z,95490.23
2018-12-01T00:26:43.820Z,95492.82
2018-12-01T00:29:14.118Z,95495.46
2018-12-01T00:31:44.047Z,95495.02
2018-12-01T00:34:13.986Z,95494.95
2018-12-01T00:36:43.957Z,95495.83
2018-12-01T00:39:13.910Z,95487.67
2018-12-01T00:41:44.310Z,95497.99
2018-12-01T00:44:14.330Z,95496.28
2018-12-01T00:46:44.186Z,95494.98
2018-12-01T00:49:14.180Z,95505.28
2018-12-01T00:51:44.060Z,95505.78
2018-12-01T00:54:13.902Z,95510.48
2018-12-01T00:56:43.856Z,95517.36
2018-12-01T00:59:13.845Z,95516.55
2018-12-01T01:01:43.698Z,95519.53
2018-12-01T01:04:13.592Z,95520.41
2018-12-01T01:06:43.650Z,95522.51
2018-12-01T01:09:13.866Z,95525.47
2018-12-01T01:11:43.722Z,95526.84
2018-12-01T01:14:13.534Z,95534.58
2018-12-01T01:16:44.010Z,95538.83
2018-12-01T01:19:13.947Z,95540.14
2018-12-01T01:21:43.942Z,95538.82
2018-12-01T01:24:13.783Z,95540.98
2018-12-01T01:26:43.871Z,95542.31
2018-12-01T01:29:13.794Z,95545.73
2018-12-01T01:31:43.668Z,95545.27
2018-12-01T01:34:13.698Z,95540.54
2018-12-01T01:36:43.589Z,95542.67
2018-12-01T01:39:13.468Z,95552.55
2018-12-01T01:41:43.766Z,95548.72
2018-12-01T01:44:14.510Z,95547.92
2018-12-01T01:46:44.372Z,95546.19
2018-12-01T01:49:14.309Z,95545.30
2018-12-01T01:51:44.216Z,95548.24
2018-12-01T01:54:14.133Z,95546.98
2018-12-01T01:56:43.999Z,95544.84
2018-12-01T01:59:13.973Z,95548.27
2018-12-01T02:01:43.956Z,95544.42
2018-12-01T02:04:13.874Z,95545.23
2018-12-01T02:06:43.833Z,95553.87
2018-12-01T02:09:13.697Z,95556.56
2018-12-01T02:11:43.649Z,95552.15
2018-12-01T02:14:13.577Z,95553.45
2018-12-01T02:16:43.431Z,95543.09
2018-12-01T02:19:13.253Z,95550.91
2018-12-01T02:21:43.101Z,95536.69
2018-12-01T02:24:13.401Z,95537.55
2018-12-01T02:26:43.351Z,95540.98
2018-12-01T02:29:13.201Z,95545.77
2018-12-01T02:31:43.127Z,95539.33
2018-12-01T02:34:13.451Z,95534.97
2018-12-01T02:36:43.359Z,95540.98
2018-12-01T02:39:13.192Z,95540.17
2018-12-01T02:41:43.158Z,95545.73
2018-12-01T02:44:24.355Z,95540.51
2018-12-01T02:47:04.850Z,95537.14
2018-12-01T02:49:35.582Z,95540.95
2018-12-01T02:52:06.817Z,95547.88
2018-12-01T02:54:36.723Z,95545.69
2018-12-01T02:57:06.753Z,95548.72
2018-12-01T02:59:36.925Z,95549.96
2018-12-01T03:02:06.682Z,95550.41
2018-12-01T03:04:36.510Z,95549.98
2018-12-01T03:07:06.606Z,95552.94
2018-12-01T03:09:36.608Z,95556.80
2018-12-01T03:12:06.593Z,95552.48
2018-12-01T03:14:36.461Z,95557.27
2018-12-01T03:17:06.496Z,95559.54
2018-12-01T03:19:36.444Z,95559.09
2018-12-01T03:22:06.718Z,95567.73
2018-12-01T03:24:36.594Z,95557.80
2018-12-01T03:27:07.653Z,95555.63
2018-12-01T03:29:37.495Z,95561.23
2018-12-01T03:32:07.990Z,95563.34
2018-12-01T03:34:37.903Z,95569.39
2018-12-01T03:37:09.201Z,95565.14
2018-12-01T03:39:39.100Z,95574.98
2018-12-01T03:42:08.933Z,95571.13
2018-12-01T03:44:38.987Z,95574.98
2018-12-01T03:47:09.754Z,95577.16
2018-12-01T03:49:39.701Z,95570.23
2018-12-01T03:52:09.662Z,95575.86
2018-12-01T03:54:39.567Z,95577.58
2018-12-01T03:57:10.449Z,95572.40
2018-12-01T03:59:40.995Z,95575.86
2018-12-01T04:02:11.095Z,95575.03
2018-12-01T04:04:41.131Z,95577.63
2018-12-01T04:07:11.463Z,95573.30
2018-12-01T04:09:41.618Z,95575.94
2018-12-01T04:12:11.543Z,95575.11
2018-12-01T04:14:41.405Z,95584.98
2018-12-01T04:17:11.579Z,95585.43
2018-12-01T04:19:41.867Z,95589.29
2018-12-01T04:22:12.193Z,95592.34
2018-12-01T04:24:42.055Z,95595.38
2018-12-01T04:27:12.170Z,95598.81
2018-12-01T04:29:42.010Z,95603.06
2018-12-01T04:32:12.030Z,95606.06
2018-12-01T04:34:41.862Z,95608.27
2018-12-01T04:37:12.897Z,95602.17
2018-12-01T04:39:42.799Z,95613.80
2018-12-01T04:42:13.330Z,95610.76
2018-12-01T04:44:43.659Z,95611.58
2018-12-01T04:47:14.414Z,95611.98
2018-12-01T04:49:44.394Z,95610.66
2018-12-01T04:52:14.337Z,95620.56
2018-12-01T04:54:44.169Z,95617.55
2018-12-01T04:57:14.521Z,95614.12
2018-12-01T04:59:45.011Z,95623.57
2018-12-01T05:02:15.530Z,95616.25
2018-12-01T05:04:45.446Z,95617.55
2018-12-01T05:07:16.647Z,95619.30
2018-12-01T05:09:47.089Z,95618.42
2018-12-01T05:12:17.806Z,95618.39
2018-12-01T05:14:47.726Z,95618.42
2018-12-01T05:17:17.995Z,95614.96
2018-12-01T05:19:48.005Z,95613.66
2018-12-01T05:22:17.838Z,95613.27
2018-12-01T05:24:48.001Z,95608.54
2018-12-01T05:27:18.765Z,95609.42
2018-12-01T05:29:49.244Z,95612.45
2018-12-01T05:32:19.093Z,95614.21
2018-12-01T05:34:49.002Z,95617.25
2018-12-01T05:37:18.884Z,95615.95
2018-12-01T05:39:48.831Z,95618.98
2018-12-01T05:42:18.816Z,95619.50
2018-12-01T05:44:48.760Z,95626.33
2018-12-01T05:47:18.639Z,95624.66
2018-12-01T05:49:48.480Z,95624.66
2018-12-01T05:52:18.348Z,95626.84
2018-12-01T05:54:48.199Z,95618.22
2018-12-01T05:57:18.238Z,95628.56
2018-12-01T05:59:48.141Z,95626.40
2018-12-01T06:02:18.026Z,95636.32
2018-12-01T06:04:47.988Z,95631.95
2018-12-01T06:07:18.026Z,95632.77
2018-12-01T06:09:47.877Z,95628.91
2018-12-01T06:12:17.794Z,95630.26
2018-12-01T06:14:47.782Z,95635.78
2018-12-01T06:17:17.867Z,95640.53
2018-12-01T06:19:47.699Z,95637.19
2018-12-01T06:22:18.496Z,95634.11
2018-12-01T06:24:48.374Z,95629.38
2018-12-01T06:27:18.328Z,95628.97
2018-12-01T06:29:48.134Z,95640.23
2018-12-01T06:32:18.160Z,95645.94
2018-12-01T06:34:48.890Z,95652.83
2018-12-01T06:37:18.788Z,95653.66
2018-12-01T06:39:48.784Z,95653.69
2018-12-01T06:42:19.345Z,95655.42
2018-12-01T06:44:49.276Z,95658.00
2018-12-01T06:47:19.276Z,95665.37
2018-12-01T06:49:49.132Z,95666.22
2018-12-01T06:52:19.208Z,95672.27
2018-12-01T06:54:49.653Z,95670.56
2018-12-01T06:57:19.838Z,95673.57
2018-12-01T06:59:50.265Z,95676.14
2018-12-01T07:02:20.924Z,95683.00
2018-12-01T07:04:50.751Z,95685.61
2018-12-01T07:07:20.745Z,95685.58
2018-12-01T07:09:50.578Z,95688.56
2018-12-01T07:12:20.492Z,95691.14
2018-12-01T07:14:50.417Z,95698.48
2018-12-01T07:17:20.394Z,95700.58
2018-12-01T07:19:50.398Z,95700.98
2018-12-01T07:22:22.494Z,95696.21
2018-12-01T07:24:52.444Z,95702.22
2018-12-01T07:27:22.388Z,95695.31
2018-12-01T07:29:52.378Z,95698.72
2018-12-01T07:32:22.405Z,95699.97
2018-12-01T07:34:52.279Z,95696.50
2018-12-01T07:37:22.293Z,95699.51
2018-12-01T07:39:52.753Z,95700.36
2018-12-01T07:42:22.671Z,95701.65
2018-12-01T07:44:52.569Z,95701.20
2018-12-01T07:47:22.497Z,95698.58
2018-12-01T07:49:52.449Z,95703.73
2018-12-01T07:52:22.467Z,95698.98
2018-12-01T07:54:52.460Z,95707.17
2018-12-01T07:57:22.465Z,95704.15
2018-12-01T07:59:52.344Z,95711.52
2018-12-01T08:02:22.412Z,95721.91
2018-12-01T08:04:52.325Z,95716.73
2018-12-01T08:07:22.219Z,95718.03
2018-12-01T08:09:52.140Z,95717.14
2018-12-01T08:12:21.995Z,95721.44
2018-12-01T08:14:51.993Z,95714.10
2018-12-01T08:17:22.032Z,95717.54
2018-12-01T08:19:52.177Z,95720.55
2018-12-01T08:22:22.244Z,95723.55
2018-12-01T08:24:52.253Z,95720.08
2018-12-01T08:27:22.174Z,95728.67
2018-12-01T08:29:52.549Z,95729.52
2018-12-01T08:32:22.503Z,95722.56
2018-12-01T08:34:52.356Z,95726.79
2018-12-01T08:37:22.474Z,95729.36
2018-12-01T08:39:52.670Z,95733.19
2018-12-01T08:42:24.242Z,95734.86
2018-12-01T08:44:54.061Z,95730.59
2018-12-01T08:47:24.037Z,95737.84
2018-12-01T08:49:54.022Z,95732.61
2018-12-01T08:52:24.022Z,95731.63
2018-12-01T08:54:53.929Z,95729.45
2018-12-01T08:57:23.844Z,95732.41
2018-12-01T08:59:53.664Z,95733.16
2018-12-01T09:02:23.584Z,95740.61
2018-12-01T09:04:53.479Z,95729.12
2018-12-01T09:07:23.414Z,95741.93
2018-12-01T09:09:53.367Z,95744.01
2018-12-01T09:12:23.907Z,95749.48
2018-12-01T09:14:54.380Z,95752.44
2018-12-01T09:17:24.422Z,95751.92
2018-12-01T09:19:54.294Z,95750.91
2018-12-01T09:22:24.444Z,95747.97
2018-12-01T09:24:54.382Z,95741.41
2018-12-01T09:27:24.266Z,95737.48
2018-12-01T09:29:54.763Z,95737.34
2018-12-01T09:32:25.244Z,95737.72
2018-12-01T09:34:55.245Z,95736.46
2018-12-01T09:37:25.142Z,95734.33
2018-12-01T09:39:55.332Z,95736.80
2018-12-01T09:42:25.394Z,95730.20
2018-12-01T09:44:55.287Z,95731.42
2018-12-01T09:47:25.141Z,95728.28
2018-12-01T09:49:55.625Z,95720.88
2018-12-01T09:52:25.558Z,95711.33
2018-12-01T09:54:55.433Z,95704.70
2018-12-01T09:57:25.789Z,95701.04
2018-12-01T09:59:55.800Z,95699.60
2018-12-01T10:02:25.685Z,95697.36
2018-12-01T10:04:55.735Z,95693.84
2018-12-01T10:07:25.705Z,95688.17
2018-12-01T10:09:56.277Z,95688.34
2018-12-01T10:12:26.249Z,95676.91
2018-12-01T10:14:56.219Z,95676.86
2018-12-01T10:17:26.089Z,95674.63
2018-12-01T10:19:56.015Z,95671.25
2018-12-01T10:22:26.504Z,95674.98
2018-12-01T10:24:56.367Z,95669.73
2018-12-01T10:27:26.313Z,95666.67
2018-12-01T10:29:57.001Z,95658.47
2018-12-01T10:32:26.893Z,95654.88
2018-12-01T10:34:57.238Z,95643.95
2018-12-01T10:37:27.157Z,95647.88
2018-12-01T10:39:57.073Z,95640.15
2018-12-01T10:42:26.942Z,95642.50
2018-12-01T10:44:56.927Z,95635.80
2018-12-01T10:47:26.793Z,95630.89
2018-12-01T10:49:56.762Z,95625.66
2018-12-01T10:52:26.641Z,95620.48
2018-12-01T10:54:56.601Z,95617.65
2018-12-01T10:57:26.627Z,95611.52
2018-12-01T10:59:56.645Z,95611.08
2018-12-01T11:02:31.803Z,95607.24
2018-12-01T11:05:01.790Z,95607.03
2018-12-01T11:07:31.634Z,95607.73
2018-12-01T11:10:01.531Z,95600.84
2018-12-01T11:12:31.400Z,95599.12
2018-12-01T11:15:01.405Z,95602.53
2018-12-01T11:17:31.321Z,95599.20
2018-12-01T11:20:01.488Z,95594.19
2018-12-01T11:22:31.438Z,95592.14
2018-12-01T11:25:01.522Z,95590.59
2018-12-01T11:27:31.434Z,95589.10
2018-12-01T11:30:01.304Z,95587.83
2018-12-01T11:32:31.350Z,95584.33
2018-12-01T11:35:01.391Z,95585.84
2018-12-01T11:37:32.202Z,95592.03
2018-12-01T11:40:01.442Z,95586.00
2018-12-01T11:42:31.341Z,95583.16
2018-12-01T11:45:01.413Z,95587.91
2018-12-01T11:47:31.850Z,95592.83
2018-12-01T11:50:01.811Z,95582.24
2018-12-01T11:52:31.803Z,95588.25
2018-12-01T11:55:01.990Z,95573.72
2018-12-01T11:57:32.031Z,95588.79
2018-12-01T12:00:01.994Z,95581.78
2018-12-01T12:02:31.929Z,95578.00
2018-12-01T12:05:01.898Z,95575.80
2018-12-01T12:07:43.537Z,95584.39
2018-12-01T12:10:14.102Z,95583.23
2018-12-01T12:12:44.049Z,95581.23
2018-12-01T12:15:14.652Z,95577.89
2018-12-01T12:17:51.082Z,95586.78
2018-12-01T12:20:21.175Z,95583.42
2018-12-01T12:22:51.212Z,95587.41
2018-12-01T12:25:21.149Z,95588.41
2018-12-01T12:27:51.180Z,95595.76
2018-12-01T12:30:25.919Z,95597.41
2018-12-01T12:32:51.631Z,95602.23
2018-12-01T12:35:21.609Z,95600.75
2018-12-01T12:37:51.554Z,95604.01
2018-12-01T12:40:23.649Z,95608.40
2018-12-01T12:42:55.611Z,95614.02
2018-12-01T12:45:25.551Z,95605.33
2018-12-01T12:47:55.500Z,95606.37
2018-12-01T12:50:25.489Z,95607.86
2018-12-01T12:52:56.302Z,95599.42
2018-12-01T12:55:28.064Z,95605.09
2018-12-01T12:57:58.015Z,95605.75
2018-12-01T13:00:28.265Z,95593.70
2018-12-01T13:03:00.447Z,95587.89
2018-12-01T13:05:34.705Z,95595.56
2018-12-01T13:08:05.075Z,95598.44
2018-12-01T13:10:35.017Z,95593.66
2018-12-01T13:13:05.523Z,95595.70
2018-12-01T13:15:36.893Z,95597.34
2018-12-01T13:18:10.368Z,95593.73
2018-12-01T13:20:40.996Z,95593.16
2018-12-01T13:23:10.994Z,95592.42
2018-12-01T13:25:41.777Z,95595.02
2018-12-01T13:28:48.454Z,95586.44
2018-12-01T13:31:31.919Z,95576.99
2018-12-01T13:34:01.854Z,95571.17
2018-12-01T13:36:31.949Z,95571.80
2018-12-01T13:39:02.574Z,95566.45
2018-12-01T13:41:32.769Z,95571.33
2018-12-01T13:44:02.859Z,95564.19
2018-12-01T13:46:32.920Z,95564.45
2018-12-01T13:49:02.901Z,95564.63
2018-12-01T13:51:32.913Z,95560.16
2018-12-01T13:54:02.777Z,95561.39
2018-12-01T13:56:32.760Z,95563.83
2018-12-01T13:59:02.649Z,95570.52
2018-12-01T14:01:32.742Z,95570.23
2018-12-01T14:04:02.579Z,95577.63
2018-12-01T14:06:32.429Z,95582.52
2018-12-01T14:09:02.448Z,95586.06
2018-12-01T14:11:32.369Z,95595.18
2018-12-01T14:14:02.350Z,95596.67
2018-12-01T14:16:32.257Z,95594.83
2018-12-01T14:19:02.170Z,95590.63
2018-12-01T14:21:33.733Z,95595.02
2018-12-01T14:24:03.711Z,95595.10
2018-12-01T14:26:33.693Z,95590.03
2018-12-01T14:29:03.583Z,95593.11
2018-12-01T14:31:33.935Z,95588.87
2018-12-01T14:34:03.923Z,95580.44
2018-12-01T14:36:33.828Z,95579.20
2018-12-01T14:39:05.279Z,95573.17
2018-12-01T14:41:35.259Z,95572.41
2018-12-01T14:44:05.096Z,95562.54
2018-12-01T14:46:35.993Z,95573.16
2018-12-01T14:49:06.175Z,95574.66
2018-12-01T14:51:36.059Z,95575.37
2018-12-01T14:54:06.035Z,95568.87
2018-12-01T14:56:35.951Z,95569.76
2018-12-01T14:59:05.856Z,95563.73
2018-12-01T15:01:35.765Z,95567.75
2018-12-01T15:04:05.990Z,95570.41
2018-12-01T15:06:35.943Z,95566.57
2018-12-01T15:09:09.214Z,95555.41
2018-12-01T15:11:39.129Z,95562.92
2018-12-01T15:14:09.174Z,95560.50
2018-12-01T15:16:39.271Z,95558.13
2018-12-01T15:19:09.182Z,95554.86
2018-12-01T15:21:39.090Z,95557.16
2018-12-01T15:24:09.054Z,95565.17
2018-12-01T15:26:39.711Z,95563.67
2018-12-01T15:29:09.581Z,95564.64
2018-12-01T15:31:39.431Z,95560.46
2018-12-01T15:34:09.423Z,95561.39
2018-12-01T15:36:39.339Z,95554.62
2018-12-01T15:39:11.472Z,95548.33
2018-12-01T15:41:41.477Z,95554.86
2018-12-01T15:44:11.378Z,95553.23
2018-12-01T15:46:41.273Z,95545.55
2018-12-01T15:49:11.215Z,95539.67
2018-12-01T15:51:41.067Z,95543.55
2018-12-01T15:54:10.941Z,95544.10
2018-12-01T15:56:40.899Z,95546.28
2018-12-01T15:59:10.747Z,95552.93
2018-12-01T16:01:40.944Z,95551.67
2018-12-01T16:04:12.029Z,95556.40
2018-12-01T16:06:42.445Z,95558.23
2018-12-01T16:09:12.348Z,95555.72
2018-12-01T16:11:42.365Z,95558.42
2018-12-01T16:14:12.274Z,95549.85
2018-12-01T16:16:42.233Z,95552.98
2018-12-01T16:19:12.211Z,95551.22
2018-12-01T16:21:42.280Z,95552.59
2018-12-01T16:24:12.177Z,95556.90
2018-12-01T16:26:42.022Z,95556.09
2018-12-01T16:29:11.875Z,95554.84
2018-12-01T16:31:42.667Z,95553.16
2018-12-01T16:34:13.072Z,95554.45
2018-12-01T16:36:43.081Z,95550.56
2018-12-01T16:39:13.273Z,95548.78
2018-12-01T16:41:43.409Z,95548.78
2018-12-01T16:44:13.930Z,95552.28
2018-12-01T16:46:43.834Z,95541.92
2018-12-01T16:49:13.816Z,95535.03
2018-12-01T16:51:44.025Z,95533.34
2018-12-01T16:54:13.989Z,95529.11
2018-12-01T16:56:44.034Z,95542.52
2018-12-01T16:59:14.029Z,95545.17
2018-12-01T17:01:44.073Z,95541.39
2018-12-01T17:04:14.079Z,95535.79
2018-12-01T17:06:44.145Z,95535.40
2018-12-01T17:09:14.156Z,95531.16
2018-12-01T17:11:44.155Z,95537.63
2018-12-01T17:14:14.136Z,95542.02
2018-12-01T17:16:44.077Z,95543.34
2018-12-01T17:19:14.445Z,95536.94
2018-12-01T17:21:44.430Z,95537.00
2018-12-01T17:24:14.398Z,95531.77
2018-12-01T17:26:44.422Z,95522.31
2018-12-01T17:29:14.276Z,95522.34
2018-12-01T17:31:44.263Z,95519.81
2018-12-01T17:34:14.347Z,95515.48
2018-12-01T17:36:44.756Z,95514.70
2018-12-01T17:39:14.924Z,95514.73
2018-12-01T17:41:45.930Z,95512.08
2018-12-01T17:44:16.274Z,95515.14
2018-12-01T17:46:46.368Z,95523.80
2018-12-01T17:49:16.396Z,95517.39
2018-12-01T17:51:46.511Z,95519.55
2018-12-01T17:54:17.503Z,95516.63
2018-12-01T17:56:47.885Z,95516.64
2018-12-01T17:59:17.912Z,95519.20
2018-12-01T18:01:48.934Z,95515.34
2018-12-01T18:04:19.170Z,95510.20
2018-12-01T18:06:49.278Z,95508.52
2018-12-01T18:09:20.007Z,95508.53
2018-12-01T18:11:51.061Z,95505.58
2018-12-01T18:14:21.051Z,95506.86
2018-12-01T18:16:51.033Z,95506.95
2018-12-01T18:19:20.932Z,95510.83
2018-12-01T18:21:51.018Z,95504.86
2018-12-01T18:24:20.916Z,95509.11
2018-12-01T18:26:50.901Z,95508.70
2018-12-01T18:29:21.533Z,95515.16
2018-12-01T18:31:51.582Z,95514.33
2018-12-01T18:34:21.607Z,95511.78
2018-12-01T18:36:51.796Z,95515.23
2018-12-01T18:39:21.944Z,95518.68
2018-12-01T18:41:51.921Z,95503.60
2018-12-01T18:44:22.311Z,95496.28
2018-12-01T18:46:52.902Z,95499.75
2018-12-01T18:49:22.987Z,95495.47
2018-12-01T18:51:53.203Z,95498.11
2018-12-01T18:54:23.261Z,95504.98
2018-12-01T18:56:53.446Z,95497.27
2018-12-01T18:59:23.521Z,95502.86
2018-12-01T19:01:53.573Z,95499.46
2018-12-01T19:04:23.729Z,95499.45
2018-12-01T19:06:53.778Z,95498.64
2018-12-01T19:09:23.846Z,95499.10
2018-12-01T19:11:53.812Z,95496.09
2018-12-01T19:14:23.896Z,95500.86
2018-12-01T19:16:53.986Z,95496.58
2018-12-01T19:19:24.143Z,95496.59
2018-12-01T19:21:54.395Z,95493.58
2018-12-01T19:24:24.525Z,95489.72
2018-12-01T19:26:54.671Z,95490.60
2018-12-01T19:29:25.380Z,95480.30
2018-12-01T19:31:55.746Z,95485.48
2018-12-01T19:34:25.806Z,95479.90
2018-12-01T19:36:56.059Z,95488.94
2018-12-01T19:39:26.077Z,95485.53
2018-12-01T19:41:56.187Z,95485.07
2018-12-01T19:44:26.552Z,95480.36
2018-12-01T19:46:56.622Z,95472.64
2018-12-01T19:49:26.866Z,95470.50
2018-12-01T19:51:57.082Z,95467.95
2018-12-01T19:54:27.573Z,95464.97
2018-12-01T19:56:58.014Z,95460.23
2018-12-01T19:59:28.936Z,95460.67
2018-12-01T20:01:59.149Z,95461.13
2018-12-01T20:04:29.254Z,95459.41
2018-12-01T20:06:59.338Z,95456.84
2018-12-01T20:09:30.572Z,95455.12
2018-12-01T20:12:00.753Z,95448.67
2018-12-01T20:14:30.940Z,95447.38
2018-12-01T20:17:04.196Z,95442.66
2018-12-01T20:19:34.313Z,95440.50
2018-12-01T20:22:04.785Z,95437.48
2018-12-01T20:24:34.922Z,95439.64
2018-12-01T20:27:06.011Z,95440.49
2018-12-01T20:29:36.092Z,95433.16
2018-12-01T20:32:06.312Z,95428.00
2018-12-01T20:34:36.501Z,95417.65
2018-12-01T20:37:11.249Z,95419.81
2018-12-01T20:39:43.857Z,95415.05
2018-12-01T20:42:14.039Z,95415.03
2018-12-01T20:44:44.308Z,95423.19
2018-12-01T20:47:14.811Z,95416.72
2018-12-01T20:49:45.076Z,95417.11
2018-12-01T20:52:15.112Z,95415.81
2018-12-01T20:54:46.546Z,95418.79
2018-12-01T20:57:33.212Z,95416.64
2018-12-01T21:00:03.526Z,95417.04
2018-12-01T21:02:35.615Z,95412.31
2018-12-01T21:05:08.465Z,95407.61
2018-12-01T21:07:38.481Z,95404.17
2018-12-01T21:10:11.366Z,95401.53
2018-12-01T21:12:41.541Z,95394.66
2018-12-01T21:15:12.836Z,95401.08
2018-12-01T21:17:43.974Z,95404.48
2018-12-01T21:20:17.226Z,95403.62
2018-12-01T21:22:50.098Z,95401.06
2018-12-01T21:25:23.108Z,95400.61
2018-12-01T21:27:53.351Z,95404.47
2018-12-01T21:30:25.056Z,95402.28
2018-12-01T21:33:29.790Z,95403.59
2018-12-01T21:35:59.838Z,95405.27
2018-12-01T21:38:29.819Z,95401.85
2018-12-01T21:40:59.861Z,95396.27
2018-12-01T21:43:29.940Z,95397.53
2018-12-01T21:45:59.874Z,95393.26
2018-12-01T21:48:30.021Z,95391.07
2018-12-01T21:50:59.930Z,95390.25
2018-12-01T21:53:29.998Z,95389.78
2018-12-01T21:56:00.059Z,95390.67
2018-12-01T21:58:31.008Z,95384.64
2018-12-01T22:01:01.941Z,95380.32
2018-12-01T22:03:32.543Z,95385.46
2018-12-01T22:06:03.969Z,95376.01
2018-12-01T22:08:34.817Z,95370.40
2018-12-01T22:11:04.855Z,95373.85
2018-12-01T22:13:34.827Z,95369.08
2018-12-01T22:16:05.068Z,95366.08
2018-12-01T22:18:35.435Z,95366.48
2018-12-01T22:21:05.655Z,95371.64
2018-12-01T22:23:36.418Z,95372.53
2018-12-01T22:26:07.591Z,95360.03
2018-12-01T22:28:37.651Z,95364.30
2018-12-01T22:31:08.122Z,95364.32
2018-12-01T22:33:38.023Z,95356.58
2018-12-01T22:36:07.927Z,95352.20
2018-12-01T22:38:37.826Z,95348.34
2018-12-01T22:41:07.685Z,95343.61
2018-12-01T22:43:37.735Z,95343.14
2018-12-01T22:46:08.521Z,95349.18
2018-12-01T22:48:38.444Z,95347.88
2018-12-01T22:51:08.317Z,95331.52
2018-12-01T22:53:38.501Z,95337.47
2018-12-01T22:56:08.860Z,95336.20
2018-12-01T22:58:39.395Z,95335.76
2018-12-01T23:01:09.411Z,95325.40
2018-12-01T23:03:41.643Z,95319.78
2018-12-01T23:06:11.630Z,95317.62
2018-12-01T23:08:41.611Z,95320.71
2018-12-01T23:11:11.534Z,95314.67
2018-12-01T23:13:41.626Z,95297.86
2018-12-01T23:16:11.725Z,95299.95
2018-12-01T23:18:42.187Z,95312.48
2018-12-01T23:21:12.328Z,95308.61
2018-12-01T23:23:42.235Z,95307.26
2018-12-01T23:26:12.137Z,95307.26
2018-12-01T23:28:42.081Z,95307.23
2018-12-01T23:31:12.091Z,95293.86
2018-12-01T23:33:42.025Z,95287.40
2018-12-01T23:36:12.149Z,95288.20
2018-12-01T23:38:42.032Z,95286.08
2018-12-01T23:41:11.902Z,95281.36
2018-12-01T23:43:41.767Z,95280.03
2018-12-01T23:46:11.672Z,95279.58
2018-12-01T23:48:41.656Z,95268.83
2018-12-01T23:51:11.579Z,95269.70
2018-12-01T23:53:41.518Z,95267.57
2018-12-01T23:56:11.429Z,95273.16
2018-12-01T23:58:41.365Z,95268.41
